createdAt,value
2023-05-21T00:00:58.184Z,11.40
2023-05-21T00:04:59.573Z,11.57
2023-05-21T00:09:01.070Z,12.50
2023-05-21T00:13:02.534Z,14.90
2023-05-21T00:17:05.396Z,11.87
2023-05-21T00:21:06.817Z,11.63
2023-05-21T00:25:09.183Z,14.43
2023-05-21T00:29:11.211Z,10.80
2023-05-21T00:33:13.974Z,11.17
2023-05-21T00:37:15.417Z,12.13
2023-05-21T00:41:17.477Z,12.43
2023-05-21T00:45:19.455Z,14.70
2023-05-21T00:49:23.599Z,13.67
2023-05-21T00:53:25.293Z,13.23
2023-05-21T00:57:26.879Z,14.30
2023-05-21T01:01:28.442Z,11.13
2023-05-21T01:05:33.611Z,12.80
2023-05-21T01:09:35.184Z,13.67
2023-05-21T01:13:39.728Z,12.17
2023-05-21T01:17:41.632Z,12.97
2023-05-21T01:21:47.157Z,12.47
2023-05-21T01:25:49.962Z,13.87
2023-05-21T01:29:51.394Z,11.03
2023-05-21T01:33:56.519Z,14.07
2023-05-21T01:38:04.998Z,12.70
2023-05-21T01:42:10.534Z,11.17
2023-05-21T01:46:17.067Z,11.97
2023-05-21T01:50:18.902Z,14.00
2023-05-21T01:54:20.363Z,11.27
2023-05-21T01:58:23.304Z,12.17
2023-05-21T02:02:24.802Z,13.93
2023-05-21T02:06:26.238Z,12.13
2023-05-21T02:10:27.656Z,12.80
2023-05-21T02:14:30.420Z,11.73
2023-05-21T02:18:31.864Z,9.90
2023-05-21T02:22:33.320Z,8.60
2023-05-21T02:26:34.778Z,9.47
2023-05-21T02:30:37.541Z,10.17
2023-05-21T02:34:38.972Z,9.47
2023-05-21T02:38:40.935Z,12.27
2023-05-21T02:42:42.352Z,9.07
2023-05-21T02:46:45.104Z,11.33
2023-05-21T02:50:46.830Z,11.23
2023-05-21T02:54:48.357Z,9.00
2023-05-21T02:58:49.998Z,9.33
2023-05-21T03:02:53.409Z,12.73
2023-05-21T03:06:56.225Z,8.47
2023-05-21T03:10:57.660Z,11.90
2023-05-21T03:14:59.320Z,9.30
2023-05-21T03:19:02.136Z,9.13
2023-05-21T03:23:03.711Z,10.30
2023-05-21T03:27:05.758Z,8.80
2023-05-21T03:31:07.241Z,9.73
2023-05-21T03:35:10.358Z,9.23
2023-05-21T03:39:11.816Z,10.40
2023-05-21T03:43:13.365Z,11.93
2023-05-21T03:47:15.063Z,10.17
2023-05-21T03:51:17.898Z,10.17
2023-05-21T03:55:19.365Z,11.20
2023-05-21T03:59:20.778Z,11.63
2023-05-21T04:03:22.614Z,15.80
2023-05-21T04:07:25.541Z,10.87
2023-05-21T04:11:27.060Z,10.37
2023-05-21T04:15:28.515Z,11.17
2023-05-21T04:19:30.157Z,10.20
2023-05-21T04:23:33.353Z,10.47
2023-05-21T04:27:35.199Z,12.67
2023-05-21T04:31:37.878Z,12.03
2023-05-21T04:35:39.393Z,11.93
2023-05-21T04:39:42.121Z,10.47
2023-05-21T04:43:43.537Z,11.43
2023-05-21T04:47:45.017Z,11.07
2023-05-21T04:51:46.511Z,10.77
2023-05-21T04:55:49.298Z,10.60
2023-05-21T04:59:51.011Z,8.37
2023-05-21T05:03:52.771Z,10.57
2023-05-21T05:07:54.280Z,14.27
2023-05-21T05:11:57.052Z,10.60
2023-05-21T05:15:58.441Z,11.67
2023-05-21T05:19:59.954Z,10.60
2023-05-21T05:24:01.411Z,8.77
2023-05-21T05:28:04.870Z,9.80
2023-05-21T05:32:07.653Z,12.13
2023-05-21T05:36:09.093Z,10.43
2023-05-21T05:40:10.887Z,10.60
2023-05-21T05:44:13.688Z,10.00
2023-05-21T05:48:15.142Z,9.10
2023-05-21T05:52:16.822Z,13.20
2023-05-21T05:56:18.286Z,9.17
2023-05-21T06:00:21.305Z,9.03
2023-05-21T06:04:22.794Z,12.23
2023-05-21T06:08:24.219Z,8.77
2023-05-21T06:12:26.166Z,10.63
2023-05-21T06:16:29.544Z,8.57
2023-05-21T06:20:31.069Z,8.07
2023-05-21T06:24:32.709Z,7.80
2023-05-21T06:28:34.170Z,9.63
2023-05-21T06:32:37.031Z,8.77
2023-05-21T06:36:38.551Z,10.13
2023-05-21T06:40:40.082Z,8.23
2023-05-21T06:44:41.747Z,12.27
2023-05-21T06:48:44.803Z,8.67
2023-05-21T06:52:46.245Z,7.87
2023-05-21T06:56:47.701Z,7.40
2023-05-21T07:00:49.179Z,8.20
2023-05-21T07:04:52.667Z,8.35
2023-05-21T07:08:54.135Z,7.60
2023-05-21T07:12:55.578Z,8.27
2023-05-21T07:16:57.073Z,9.60
2023-05-21T07:21:00.107Z,8.57
2023-05-21T07:25:01.657Z,8.53
2023-05-21T07:29:03.273Z,7.77
2023-05-21T07:33:04.833Z,10.13
2023-05-21T07:37:07.694Z,10.00
2023-05-21T07:41:09.214Z,8.33
2023-05-21T07:45:10.676Z,8.20
2023-05-21T07:49:12.376Z,8.73
2023-05-21T07:53:15.392Z,7.97
2023-05-21T07:57:16.843Z,8.60
2023-05-21T08:01:18.330Z,8.23
2023-05-21T08:05:19.899Z,7.90
2023-05-21T08:09:22.652Z,7.93
2023-05-21T08:13:24.265Z,8.73
2023-05-21T08:17:25.988Z,8.67
2023-05-21T08:21:27.514Z,8.27
2023-05-21T08:25:30.330Z,9.32
2023-05-21T08:29:31.755Z,9.00
2023-05-21T08:33:34.983Z,7.70
2023-05-21T08:37:36.563Z,9.90
2023-05-21T08:41:40.891Z,7.70
2023-05-21T08:45:45.220Z,8.30
2023-05-21T08:49:48.137Z,10.50
2023-05-21T08:53:50.875Z,7.15
2023-05-21T08:57:54.608Z,8.27
2023-05-21T09:01:56.959Z,9.00
2023-05-21T09:05:59.784Z,8.52
2023-05-21T09:10:06.458Z,8.95
2023-05-21T09:14:11.207Z,9.48
2023-05-21T09:18:13.147Z,10.52
2023-05-21T09:22:14.621Z,11.57
2023-05-21T09:26:16.042Z,8.68
2023-05-21T09:30:19.502Z,8.95
2023-05-21T09:34:25.042Z,8.90
2023-05-21T09:38:26.487Z,10.48
2023-05-21T09:42:29.801Z,10.18
2023-05-21T09:46:39.229Z,8.93
2023-05-21T09:50:40.748Z,9.32
2023-05-21T09:54:42.163Z,11.07
2023-05-21T09:58:43.897Z,10.63
2023-05-21T10:02:47.731Z,10.57
2023-05-21T10:06:50.627Z,9.65
2023-05-21T10:10:52.227Z,11.30
2023-05-21T10:14:59.865Z,10.00
2023-05-21T10:19:03.634Z,10.48
2023-05-21T10:23:05.400Z,10.90
2023-05-21T10:27:07.412Z,12.60
2023-05-21T10:31:09.356Z,10.13
2023-05-21T10:35:15.606Z,10.27
2023-05-21T10:39:18.582Z,11.70
2023-05-21T10:43:37.086Z,10.87
2023-05-21T10:48:02.407Z,9.40
2023-05-21T10:52:13.190Z,9.97
2023-05-21T10:56:22.811Z,13.50
2023-05-21T11:00:25.557Z,11.63
2023-05-21T11:04:27.595Z,14.95
2023-05-21T11:08:31.725Z,9.10
2023-05-21T11:12:34.635Z,10.80
2023-05-21T11:16:36.151Z,10.13
2023-05-21T11:20:37.805Z,13.52
2023-05-21T11:24:41.359Z,10.80
2023-05-21T11:28:42.828Z,11.48
2023-05-21T11:33:14.343Z,13.70
2023-05-21T11:37:28.038Z,10.57
2023-05-21T11:41:30.828Z,10.90
2023-05-21T11:45:32.990Z,12.45
2023-05-21T11:49:35.632Z,10.35
2023-05-21T11:53:37.179Z,13.80
2023-05-21T11:57:42.120Z,10.95
2023-05-21T12:01:44.102Z,10.55
2023-05-21T12:05:46.300Z,10.40
2023-05-21T12:09:49.950Z,9.90
2023-05-21T12:13:52.752Z,12.55
2023-05-21T12:17:55.176Z,11.73
2023-05-21T12:21:56.719Z,11.50
2023-05-21T12:25:58.309Z,10.45
2023-05-21T12:30:01.214Z,11.27
2023-05-21T12:34:02.705Z,10.95
2023-05-21T12:38:04.168Z,11.15
2023-05-21T12:42:05.976Z,11.02
2023-05-21T12:46:10.899Z,13.00
2023-05-21T12:50:12.467Z,15.02
2023-05-21T12:54:14.007Z,12.75
2023-05-21T12:58:15.459Z,12.10
2023-05-21T13:02:20.463Z,10.32
2023-05-21T13:06:21.945Z,10.75
2023-05-21T13:10:23.556Z,9.70
2023-05-21T13:14:25.442Z,9.98
2023-05-21T13:18:28.291Z,10.77
2023-05-21T13:22:29.715Z,10.82
2023-05-21T13:26:31.136Z,9.75
2023-05-21T13:30:32.621Z,9.52
2023-05-21T13:34:35.415Z,9.18
2023-05-21T13:38:37.085Z,11.07
2023-05-21T13:42:38.896Z,9.60
2023-05-21T13:46:40.506Z,9.00
2023-05-21T13:50:43.308Z,9.10
2023-05-21T13:54:44.728Z,9.68
2023-05-21T13:58:46.167Z,8.70
2023-05-21T14:02:47.881Z,9.00
2023-05-21T14:06:51.100Z,11.15
2023-05-21T14:10:52.640Z,9.90
2023-05-21T14:14:54.117Z,9.25
2023-05-21T14:18:56.358Z,12.73
2023-05-21T14:22:59.390Z,9.82
2023-05-21T14:27:01.090Z,9.65
2023-05-21T14:31:02.544Z,11.45
2023-05-21T14:35:05.261Z,10.65
2023-05-21T14:39:08.057Z,10.60
2023-05-21T14:43:09.784Z,10.82
2023-05-21T14:47:11.238Z,10.77
2023-05-21T14:51:12.695Z,12.77
2023-05-21T14:55:16.496Z,16.75
2023-05-21T14:59:18.089Z,12.10
2023-05-21T15:03:19.816Z,12.27
2023-05-21T15:07:21.436Z,10.85
2023-05-21T15:11:24.184Z,12.50
2023-05-21T15:15:25.678Z,11.30
2023-05-21T15:19:29.668Z,10.88
2023-05-21T15:23:31.478Z,12.75
2023-05-21T15:27:34.460Z,10.65
2023-05-21T15:31:35.949Z,14.05
2023-05-21T15:35:37.976Z,14.00
2023-05-21T15:39:39.829Z,10.15
2023-05-21T15:43:42.642Z,10.02
2023-05-21T15:47:44.105Z,11.10
2023-05-21T15:51:46.804Z,10.35
2023-05-21T15:55:48.422Z,11.10
2023-05-21T15:59:51.267Z,14.00
2023-05-21T16:03:52.728Z,11.85
2023-05-21T16:07:54.480Z,11.02
2023-05-21T16:11:55.948Z,11.40
2023-05-21T16:15:58.684Z,11.10
2023-05-21T16:20:00.235Z,13.50
2023-05-21T16:24:01.740Z,12.93
2023-05-21T16:28:03.368Z,14.27
2023-05-21T16:32:06.815Z,12.77
2023-05-21T16:36:08.272Z,11.23
2023-05-21T16:40:10.663Z,13.93
2023-05-21T16:44:12.113Z,11.13
2023-05-21T16:48:15.451Z,11.70
2023-05-21T16:52:16.892Z,12.30
2023-05-21T16:56:18.406Z,11.40
2023-05-21T17:00:20.088Z,10.93
2023-05-21T17:04:22.918Z,15.80
2023-05-21T17:08:24.348Z,10.65
2023-05-21T17:12:25.992Z,10.37
2023-05-21T17:16:27.931Z,10.85
2023-05-21T17:20:30.754Z,12.03
2023-05-21T17:24:32.279Z,11.33
2023-05-21T17:28:33.732Z,9.33
2023-05-21T17:32:35.264Z,11.03
2023-05-21T17:36:38.078Z,11.90
2023-05-21T17:40:39.498Z,12.10
2023-05-21T17:44:40.960Z,11.63
2023-05-21T17:48:42.459Z,12.60
2023-05-21T17:52:45.690Z,12.00
2023-05-21T17:56:47.221Z,11.80
2023-05-21T18:00:48.864Z,13.43
2023-05-21T18:04:50.368Z,11.53
2023-05-21T18:08:53.282Z,11.57
2023-05-21T18:12:54.906Z,11.70
2023-05-21T18:16:56.695Z,12.77
2023-05-21T18:20:58.222Z,11.93
2023-05-21T18:25:01.342Z,13.50
2023-05-21T18:29:02.778Z,12.57
2023-05-21T18:33:04.649Z,12.57
2023-05-21T18:37:06.468Z,13.23
2023-05-21T18:41:11.662Z,12.37
2023-05-21T18:45:14.176Z,12.03
2023-05-21T18:49:15.696Z,12.87
2023-05-21T18:53:17.237Z,13.93
2023-05-21T18:57:20.203Z,12.33
2023-05-21T19:01:21.981Z,13.13
2023-05-21T19:05:23.603Z,12.73
2023-05-21T19:09:25.310Z,16.47
2023-05-21T19:13:28.464Z,13.33
2023-05-21T19:17:29.922Z,12.97
2023-05-21T19:21:31.783Z,13.73
2023-05-21T19:25:33.455Z,13.77
2023-05-21T19:29:36.453Z,15.77
2023-05-21T19:33:38.070Z,14.83
2023-05-21T19:37:39.714Z,12.40
2023-05-21T19:41:41.364Z,12.10
2023-05-21T19:45:44.261Z,11.27
2023-05-21T19:49:45.780Z,11.13
2023-05-21T19:53:47.277Z,9.93
2023-05-21T19:57:48.809Z,10.33
2023-05-21T20:01:52.046Z,9.57
2023-05-21T20:05:53.694Z,9.80
2023-05-21T20:09:55.237Z,9.47
2023-05-21T20:13:56.776Z,9.73
2023-05-21T20:17:59.752Z,8.93
2023-05-21T20:22:01.511Z,9.40
2023-05-21T20:26:03.194Z,9.30
2023-05-21T20:30:06.574Z,8.63
2023-05-21T20:34:09.600Z,8.07
2023-05-21T20:38:11.294Z,7.73
2023-05-21T20:42:12.934Z,8.67
2023-05-21T20:46:14.503Z,8.33
2023-05-21T20:50:17.911Z,8.10
2023-05-21T20:54:19.775Z,10.57
2023-05-21T20:58:22.670Z,11.53
2023-05-21T21:02:24.434Z,11.57
2023-05-21T21:06:27.514Z,10.53
2023-05-21T21:10:29.192Z,11.50
2023-05-21T21:14:32.083Z,11.37
2023-05-21T21:18:33.651Z,12.07
2023-05-21T21:22:36.547Z,13.27
2023-05-21T21:26:38.280Z,13.40
2023-05-21T21:30:40.722Z,14.73
2023-05-21T21:34:42.386Z,16.37
2023-05-21T21:38:45.274Z,18.27
2023-05-21T21:42:46.931Z,15.47
2023-05-21T21:46:48.387Z,16.53
2023-05-21T21:50:50.027Z,16.83
2023-05-21T21:54:53.130Z,17.07
2023-05-21T21:58:54.602Z,18.73
2023-05-21T22:02:56.148Z,18.23
2023-05-21T22:06:57.944Z,19.60
2023-05-21T22:11:00.893Z,19.07
2023-05-21T22:15:02.534Z,21.63
2023-05-21T22:19:04.265Z,21.53
2023-05-21T22:23:06.001Z,22.57
2023-05-21T22:27:08.977Z,22.80
2023-05-21T22:31:10.613Z,26.73
2023-05-21T22:35:12.252Z,22.97
2023-05-21T22:39:13.885Z,25.40
2023-05-21T22:43:16.810Z,22.57
2023-05-21T22:47:18.415Z,25.77
2023-05-21T22:51:20.192Z,25.93
2023-05-21T22:55:21.769Z,26.33
2023-05-21T22:59:24.808Z,27.13
2023-05-21T23:03:26.378Z,26.13
2023-05-21T23:07:28.204Z,27.57
2023-05-21T23:11:29.751Z,28.07
2023-05-21T23:15:32.665Z,27.23
2023-05-21T23:19:34.334Z,25.97
2023-05-21T23:23:35.876Z,27.40
2023-05-21T23:27:37.706Z,30.07
2023-05-21T23:31:40.570Z,27.63
2023-05-21T23:35:42.262Z,26.60
2023-05-21T23:39:43.820Z,27.93
2023-05-21T23:43:45.334Z,28.37
2023-05-21T23:47:48.293Z,24.70
2023-05-21T23:51:49.859Z,30.67
2023-05-21T23:55:51.372Z,29.73
2023-05-21T23:59:53.842Z,27.17
